Time;durP1;ratioP1;P1;durP2;ratioP2;P2;SDS_P1;SDS_P2;PMS_P1;PMS_P2;Temp;Humidity;BMP_temperature;BMP_pressure;BME280_temperature;BME280_humidity;BME280_pressure;Samples;Min_cycle;Max_cycle;Signal;HPM_P1;HPM_P2
2023/09/16 00:00:54;;;;;;;232.43;34.33;;;;;;;;;;4970153;28;20035;-57
2023/09/16 00:03:20;;;;;;;189.63;35.33;;;;;;;;;;4971789;28;20424;-56
2023/09/16 00:05:45;;;;;;;195.97;38.33;;;;;;;;;;4969829;28;20290;-57
2023/09/16 00:08:10;;;;;;;177.23;45.90;;;;;;;;;;4970142;28;20267;-58
2023/09/16 00:10:35;;;;;;;186.23;39.90;;;;;;;;;;4971732;28;20270;-56
2023/09/16 00:13:00;;;;;;;211.63;45.33;;;;;;;;;;4970132;28;20270;-55
2023/09/16 00:15:27;;;;;;;154.93;40.10;;;;;;;;;;4970166;28;20076;-57
2023/09/16 00:17:52;;;;;;;306.52;40.58;;;;;;;;;;4970498;28;20324;-58
2023/09/16 00:20:18;;;;;;;155.98;38.40;;;;;;;;;;4970045;28;20038;-56
2023/09/16 00:22:43;;;;;;;165.63;41.25;;;;;;;;;;4970823;28;20030;-57
2023/09/16 00:25:09;;;;;;;182.68;37.45;;;;;;;;;;4968362;28;20390;-56
2023/09/16 00:27:35;;;;;;;123.53;33.42;;;;;;;;;;4971833;28;20359;-57
2023/09/16 00:30:00;;;;;;;180.27;39.15;;;;;;;;;;4969864;28;20251;-56
2023/09/16 00:32:28;;;;;;;216.40;39.60;;;;;;;;;;4969870;28;20122;-55
2023/09/16 00:34:53;;;;;;;266.08;40.70;;;;;;;;;;4968169;28;20031;-56
2023/09/16 00:37:18;;;;;;;140.48;36.45;;;;;;;;;;4970050;28;20027;-56
2023/09/16 00:39:44;;;;;;;230.97;44.97;;;;;;;;;;4970692;28;20019;-58
2023/09/16 00:42:10;;;;;;;144.68;48.03;;;;;;;;;;4967485;28;20767;-55
2023/09/16 00:44:36;;;;;;;153.10;50.15;;;;;;;;;;4970459;28;20069;-56
2023/09/16 00:47:01;;;;;;;342.02;58.53;;;;;;;;;;4969102;28;20038;-57
2023/09/16 00:49:30;;;;;;;188.77;52.97;;;;;;;;;;4969259;28;20081;-57
2023/09/16 00:51:55;;;;;;;311.45;58.83;;;;;;;;;;4969311;28;20035;-56
2023/09/16 00:54:20;;;;;;;217.57;54.58;;;;;;;;;;4967257;28;20085;-56
2023/09/16 00:56:46;;;;;;;180.40;56.20;;;;;;;;;;4970630;28;20043;-56
2023/09/16 00:59:12;;;;;;;166.45;56.90;;;;;;;;;;4970306;28;20025;-58
2023/09/16 01:01:38;;;;;;;299.95;59.97;;;;;;;;;;4972744;28;20526;-58
2023/09/16 01:04:04;;;;;;;304.02;64.63;;;;;;;;;;4974391;28;20022;-58
2023/09/16 01:06:31;;;;;;;244.27;60.30;;;;;;;;;;4973683;28;20382;-57
2023/09/16 01:08:56;;;;;;;352.27;67.10;;;;;;;;;;4973901;28;20103;-57
2023/09/16 01:11:24;;;;;;;227.80;61.85;;;;;;;;;;4973255;28;20449;-55
2023/09/16 01:13:50;;;;;;;283.40;64.63;;;;;;;;;;4972029;28;20019;-57
2023/09/16 01:16:16;;;;;;;205.45;61.35;;;;;;;;;;4971983;28;20026;-57
2023/09/16 01:18:46;;;;;;;185.68;61.08;;;;;;;;;;4974157;28;20026;-57
2023/09/16 01:21:13;;;;;;;273.83;63.63;;;;;;;;;;4972334;28;20037;-56
2023/09/16 01:23:38;;;;;;;217.13;62.95;;;;;;;;;;4973194;28;20041;-54
2023/09/16 01:26:03;;;;;;;316.53;67.43;;;;;;;;;;4970881;28;20042;-57
2023/09/16 01:28:29;;;;;;;269.52;65.35;;;;;;;;;;4972482;28;20627;-56
2023/09/16 01:30:58;;;;;;;323.48;68.15;;;;;;;;;;4971667;28;20088;-56
2023/09/16 01:33:29;;;;;;;222.32;64.15;;;;;;;;;;4972188;28;20027;-58
2023/09/16 01:35:56;;;;;;;297.13;67.27;;;;;;;;;;4970729;28;20189;-56
2023/09/16 01:38:22;;;;;;;235.35;64.43;;;;;;;;;;4974224;28;20022;-56
2023/09/16 01:40:49;;;;;;;276.75;66.72;;;;;;;;;;4971631;28;20489;-57
2023/09/16 01:43:15;;;;;;;247.60;64.70;;;;;;;;;;4972068;28;20422;-56
2023/09/16 01:45:40;;;;;;;216.45;66.32;;;;;;;;;;4970559;28;20050;-55
2023/09/16 01:48:06;;;;;;;331.98;70.32;;;;;;;;;;4970607;28;20327;-56
2023/09/16 01:50:31;;;;;;;220.43;67.35;;;;;;;;;;4972421;28;20030;-56
2023/09/16 01:52:56;;;;;;;309.80;77.23;;;;;;;;;;4978489;28;20034;-56
2023/09/16 01:55:22;;;;;;;251.93;68.70;;;;;;;;;;4972979;28;20254;-57
2023/09/16 01:57:47;;;;;;;231.85;68.22;;;;;;;;;;4973333;28;20258;-57
2023/09/16 02:00:12;;;;;;;235.03;68.20;;;;;;;;;;4970547;28;20070;-57
2023/09/16 02:02:38;;;;;;;306.65;70.32;;;;;;;;;;4970804;28;20313;-57
2023/09/16 02:05:03;;;;;;;319.98;72.32;;;;;;;;;;4969185;28;20034;-56
2023/09/16 02:07:28;;;;;;;189.40;59.67;;;;;;;;;;4971207;28;20030;-57
2023/09/16 02:09:54;;;;;;;285.73;62.28;;;;;;;;;;4970400;28;20027;-57
2023/09/16 02:12:19;;;;;;;208.57;62.13;;;;;;;;;;4972022;28;20074;-57
2023/09/16 02:14:46;;;;;;;258.85;65.07;;;;;;;;;;4970901;28;20254;-57
2023/09/16 02:17:11;;;;;;;215.35;60.03;;;;;;;;;;4970057;28;20394;-57
2023/09/16 02:19:37;;;;;;;210.63;57.47;;;;;;;;;;4973922;28;20479;-57
2023/09/16 02:22:02;;;;;;;299.95;55.58;;;;;;;;;;4970296;28;20069;-58
2023/09/16 02:24:27;;;;;;;229.68;61.33;;;;;;;;;;4970708;28;20398;-56
2023/09/16 02:26:53;;;;;;;182.98;61.53;;;;;;;;;;4970797;28;20395;-56
2023/09/16 02:29:18;;;;;;;226.45;65.13;;;;;;;;;;4971522;28;20114;-56
2023/09/16 02:31:43;;;;;;;259.52;67.15;;;;;;;;;;4971501;28;20034;-58
2023/09/16 02:34:08;;;;;;;353.70;73.80;;;;;;;;;;4972865;28;20022;-58
2023/09/16 02:36:34;;;;;;;237.73;69.47;;;;;;;;;;4972361;28;20714;-57
2023/09/16 02:38:59;;;;;;;310.83;73.38;;;;;;;;;;4972170;28;20026;-57
2023/09/16 02:41:24;;;;;;;259.20;69.20;;;;;;;;;;4970537;28;20502;-57
2023/09/16 02:43:49;;;;;;;243.33;70.50;;;;;;;;;;4971021;28;20712;-58
2023/09/16 02:46:15;;;;;;;263.97;71.57;;;;;;;;;;4969775;28;20373;-58
2023/09/16 02:48:40;;;;;;;211.32;71.22;;;;;;;;;;4970840;28;20285;-59
2023/09/16 02:51:09;;;;;;;309.92;75.15;;;;;;;;;;4969242;28;20383;-57
2023/09/16 02:53:35;;;;;;;262.02;72.90;;;;;;;;;;4970629;28;20050;-59
2023/09/16 02:56:00;;;;;;;336.13;76.15;;;;;;;;;;4971570;28;20078;-58
2023/09/16 02:58:25;;;;;;;290.77;73.43;;;;;;;;;;4970451;28;20035;-58
2023/09/16 03:00:51;;;;;;;247.52;73.18;;;;;;;;;;4972663;28;20049;-58
2023/09/16 03:03:16;;;;;;;273.73;72.70;;;;;;;;;;4968661;28;20019;-59
2023/09/16 03:05:45;;;;;;;278.42;73.57;;;;;;;;;;4968482;28;20417;-58
2023/09/16 03:08:10;;;;;;;324.55;76.25;;;;;;;;;;4970162;28;20051;-59
2023/09/16 03:10:35;;;;;;;246.67;73.77;;;;;;;;;;4971043;28;20067;-59
2023/09/16 03:13:00;;;;;;;374.80;78.28;;;;;;;;;;4968222;28;20309;-60
2023/09/16 03:15:26;;;;;;;219.70;73.07;;;;;;;;;;4969228;28;20288;-59
2023/09/16 03:17:51;;;;;;;240.87;74.30;;;;;;;;;;4972634;28;20269;-57
2023/09/16 03:20:16;;;;;;;334.70;76.72;;;;;;;;;;4968310;28;20903;-57
2023/09/16 03:22:41;;;;;;;274.77;75.15;;;;;;;;;;4969173;28;20011;-57
2023/09/16 03:25:07;;;;;;;350.00;79.60;;;;;;;;;;4968193;28;20037;-57
2023/09/16 03:27:32;;;;;;;338.45;77.07;;;;;;;;;;4970641;28;20325;-57
2023/09/16 03:29:58;;;;;;;252.82;74.95;;;;;;;;;;4971544;28;20346;-57
2023/09/16 03:32:27;;;;;;;260.70;75.77;;;;;;;;;;4976044;28;20038;-57
2023/09/16 03:34:52;;;;;;;268.88;75.57;;;;;;;;;;4969155;28;20246;-57
2023/09/16 03:37:17;;;;;;;248.30;74.32;;;;;;;;;;4968642;28;20033;-58
2023/09/16 03:39:42;;;;;;;261.87;75.40;;;;;;;;;;4970739;28;20011;-57
2023/09/16 03:42:08;;;;;;;411.83;83.23;;;;;;;;;;4970114;28;20349;-57
2023/09/16 03:44:33;;;;;;;266.60;75.93;;;;;;;;;;4970194;28;20270;-60
2023/09/16 03:46:58;;;;;;;261.70;75.70;;;;;;;;;;4968578;28;20054;-57
2023/09/16 03:49:24;;;;;;;258.83;75.70;;;;;;;;;;4970017;28;20266;-58
2023/09/16 03:51:49;;;;;;;266.60;76.70;;;;;;;;;;4971046;28;20278;-58
2023/09/16 03:54:14;;;;;;;411.90;84.20;;;;;;;;;;4968784;28;20266;-57
2023/09/16 03:56:39;;;;;;;252.77;77.70;;;;;;;;;;4969855;28;20476;-57
2023/09/16 03:59:04;;;;;;;382.02;82.93;;;;;;;;;;4967808;28;20286;-59
2023/09/16 04:01:30;;;;;;;316.93;79.33;;;;;;;;;;4970456;28;20046;-58
2023/09/16 04:03:55;;;;;;;250.85;75.72;;;;;;;;;;4971129;28;20673;-58
2023/09/16 04:06:20;;;;;;;263.57;77.53;;;;;;;;;;4969520;28;20042;-57
2023/09/16 04:08:46;;;;;;;288.65;79.07;;;;;;;;;;4985485;28;20278;-58
2023/09/16 04:11:11;;;;;;;341.43;80.27;;;;;;;;;;4968292;28;20506;-57
2023/09/16 04:13:37;;;;;;;260.48;78.55;;;;;;;;;;4969098;28;20600;-57
2023/09/16 04:16:02;;;;;;;370.70;82.65;;;;;;;;;;4968573;28;20039;-58
2023/09/16 04:18:27;;;;;;;294.67;79.33;;;;;;;;;;4970750;28;20545;-57
2023/09/16 04:20:55;;;;;;;264.45;76.72;;;;;;;;;;4970307;28;20824;-57
2023/09/16 04:23:20;;;;;;;293.27;71.30;;;;;;;;;;4968440;28;20068;-56
2023/09/16 04:25:46;;;;;;;216.32;57.83;;;;;;;;;;4969567;28;20030;-57
2023/09/16 04:28:11;;;;;;;322.90;59.60;;;;;;;;;;4970315;28;20030;-58
2023/09/16 04:30:51;;;;;;;212.68;50.35;;;;;;;;;;4969294;28;20718;-58
2023/09/16 04:33:17;;;;;;;320.88;58.33;;;;;;;;;;4968892;28;20109;-58
2023/09/16 04:35:44;;;;;;;168.73;49.55;;;;;;;;;;4971923;28;20121;-57
2023/09/16 04:38:09;;;;;;;344.58;53.47;;;;;;;;;;4972322;28;20042;-58
2023/09/16 04:40:34;;;;;;;214.40;56.53;;;;;;;;;;4975830;28;20039;-59
2023/09/16 04:42:59;;;;;;;248.57;60.87;;;;;;;;;;4973724;28;20030;-59
2023/09/16 04:45:25;;;;;;;223.30;62.35;;;;;;;;;;4970550;28;20316;-57
2023/09/16 04:47:52;;;;;;;215.32;63.90;;;;;;;;;;4980046;28;20403;-60
2023/09/16 04:50:17;;;;;;;347.83;68.53;;;;;;;;;;4973541;28;20019;-59
2023/09/16 04:52:43;;;;;;;232.15;65.32;;;;;;;;;;4973464;28;20371;-59
2023/09/16 04:55:09;;;;;;;372.83;73.83;;;;;;;;;;4973072;28;20023;-58
2023/09/16 04:57:35;;;;;;;317.10;70.85;;;;;;;;;;4972377;28;20763;-58
2023/09/16 05:00:00;;;;;;;215.68;68.13;;;;;;;;;;4975149;28;20224;-57
2023/09/16 05:02:30;;;;;;;261.23;69.95;;;;;;;;;;4971830;28;20450;-58
2023/09/16 05:04:55;;;;;;;289.03;71.00;;;;;;;;;;4971935;28;20030;-57
2023/09/16 05:07:20;;;;;;;239.90;69.57;;;;;;;;;;4972178;28;22745;-57
2023/09/16 05:09:46;;;;;;;215.27;69.40;;;;;;;;;;4973900;28;20018;-58
2023/09/16 05:12:11;;;;;;;370.83;75.00;;;;;;;;;;4972090;28;20262;-58
2023/09/16 05:14:36;;;;;;;273.67;71.00;;;;;;;;;;4973862;28;20261;-58
2023/09/16 05:17:02;;;;;;;232.20;68.73;;;;;;;;;;4981002;28;20027;-57
2023/09/16 05:19:27;;;;;;;260.95;63.10;;;;;;;;;;4981807;28;20046;-58
2023/09/16 05:21:52;;;;;;;217.23;60.53;;;;;;;;;;4976204;28;20027;-58
2023/09/16 05:24:18;;;;;;;337.10;68.65;;;;;;;;;;4970446;28;20030;-57
2023/09/16 05:26:43;;;;;;;269.00;64.67;;;;;;;;;;4979015;28;20137;-58
2023/09/16 05:29:08;;;;;;;377.70;94.33;;;;;;;;;;4979332;28;20606;-57
2023/09/16 05:31:33;;;;;;;286.90;65.50;;;;;;;;;;4979507;28;20835;-58
2023/09/16 05:33:59;;;;;;;226.60;61.63;;;;;;;;;;4979202;28;20709;-57
2023/09/16 05:36:24;;;;;;;243.43;62.63;;;;;;;;;;4973940;28;20121;-57
2023/09/16 05:38:49;;;;;;;260.17;64.88;;;;;;;;;;4972189;28;20277;-57
2023/09/16 05:41:15;;;;;;;307.65;68.32;;;;;;;;;;4972317;28;20038;-58
2023/09/16 05:43:40;;;;;;;223.70;65.60;;;;;;;;;;4972155;28;20088;-58
2023/09/16 05:46:06;;;;;;;259.63;68.80;;;;;;;;;;4974974;28;20070;-57
2023/09/16 05:48:31;;;;;;;225.77;64.68;;;;;;;;;;4978535;28;20794;-58
2023/09/16 05:50:57;;;;;;;211.27;58.08;;;;;;;;;;4976673;28;20042;-58
2023/09/16 05:53:23;;;;;;;402.20;66.32;;;;;;;;;;4970349;28;20478;-58
2023/09/16 05:55:48;;;;;;;243.68;61.95;;;;;;;;;;4970796;28;20042;-57
2023/09/16 05:58:13;;;;;;;347.95;68.07;;;;;;;;;;4971313;28;20028;-58
2023/09/16 06:00:38;;;;;;;284.63;66.90;;;;;;;;;;4973210;28;20027;-58
2023/09/16 06:03:04;;;;;;;188.32;63.95;;;;;;;;;;4972174;28;20262;-60
2023/09/16 06:05:30;;;;;;;211.10;62.03;;;;;;;;;;4970911;28;20557;-59
2023/09/16 06:07:55;;;;;;;279.73;64.70;;;;;;;;;;4971791;28;20031;-58
2023/09/16 06:10:20;;;;;;;349.90;69.63;;;;;;;;;;4970367;28;20521;-59
2023/09/16 06:12:46;;;;;;;232.45;63.40;;;;;;;;;;4971774;28;20266;-60
2023/09/16 06:15:11;;;;;;;377.60;103.72;;;;;;;;;;4969748;28;20478;-59
2023/09/16 06:17:36;;;;;;;210.65;48.92;;;;;;;;;;4972028;28;20021;-59
2023/09/16 06:20:02;;;;;;;153.98;47.78;;;;;;;;;;4973685;28;20535;-59
2023/09/16 06:22:27;;;;;;;259.13;50.83;;;;;;;;;;4969464;28;20042;-59
2023/09/16 06:24:53;;;;;;;170.67;47.53;;;;;;;;;;4968634;28;20041;-59
2023/09/16 06:27:19;;;;;;;372.98;88.32;;;;;;;;;;4970465;28;20286;-58
2023/09/16 06:29:46;;;;;;;224.98;45.88;;;;;;;;;;4971985;28;20026;-58
2023/09/16 06:32:11;;;;;;;203.80;39.35;;;;;;;;;;4971096;28;20149;-57
2023/09/16 06:34:37;;;;;;;145.13;21.90;;;;;;;;;;4971595;28;20105;-57
2023/09/16 06:37:05;;;;;;;190.00;11.85;;;;;;;;;;4970266;28;20046;-58
2023/09/16 06:39:30;;;;;;;153.48;33.58;;;;;;;;;;4969866;28;20516;-59
2023/09/16 06:41:56;;;;;;;125.55;21.92;;;;;;;;;;4975946;28;20505;-58
2023/09/16 06:44:21;;;;;;;251.93;13.20;;;;;;;;;;4973585;28;20019;-57
2023/09/16 06:46:46;;;;;;;379.23;202.90;;;;;;;;;;4977804;28;20038;-58
2023/09/16 06:49:11;;;;;;;241.30;11.85;;;;;;;;;;4975320;28;20731;-57
2023/09/16 06:51:37;;;;;;;335.57;132.47;;;;;;;;;;4972853;28;20605;-58
2023/09/16 06:54:02;;;;;;;275.80;104.70;;;;;;;;;;4970256;28;20276;-57
2023/09/16 06:56:29;;;;;;;377.87;233.80;;;;;;;;;;4968197;28;21680;-58
2023/09/16 06:58:56;;;;;;;294.98;149.98;;;;;;;;;;4971752;28;20313;-58
2023/09/16 07:01:22;;;;;;;398.42;143.80;;;;;;;;;;4971184;28;20130;-57
2023/09/16 07:03:47;;;;;;;215.40;38.00;;;;;;;;;;4971895;28;20446;-57
2023/09/16 07:06:12;;;;;;;557.17;394.50;;;;;;;;;;4969690;28;20046;-59
2023/09/16 07:08:38;;;;;;;223.57;83.10;;;;;;;;;;4973109;28;20073;-58
2023/09/16 07:11:03;;;;;;;387.97;221.77;;;;;;;;;;4971352;28;20280;-57
2023/09/16 07:13:28;;;;;;;409.97;308.00;;;;;;;;;;4969769;28;21875;-58
2023/09/16 07:15:54;;;;;;;311.83;231.30;;;;;;;;;;4968718;28;20505;-58
2023/09/16 07:18:19;;;;;;;486.52;255.30;;;;;;;;;;4970093;28;20374;-58
2023/09/16 07:20:45;;;;;;;336.25;194.10;;;;;;;;;;4976268;28;20026;-58
2023/09/16 07:23:10;;;;;;;332.52;273.70;;;;;;;;;;4973525;28;20459;-58
2023/09/16 07:25:35;;;;;;;398.70;299.33;;;;;;;;;;4974604;28;20675;-58
2023/09/16 07:28:03;;;;;;;315.20;224.30;;;;;;;;;;4970772;28;20042;-59
2023/09/16 07:30:28;;;;;;;407.75;212.98;;;;;;;;;;4975711;28;20038;-60
2023/09/16 07:32:53;;;;;;;369.98;281.42;;;;;;;;;;4971884;28;20022;-59
2023/09/16 07:35:18;;;;;;;372.00;217.00;;;;;;;;;;4968782;28;20077;-59
2023/09/16 07:37:44;;;;;;;366.00;308.65;;;;;;;;;;4969453;28;20486;-59
2023/09/16 07:40:09;;;;;;;337.47;172.17;;;;;;;;;;4968870;28;20537;-61
2023/09/16 07:42:35;;;;;;;381.77;284.92;;;;;;;;;;4968545;28;20253;-60
2023/09/16 07:45:01;;;;;;;323.83;273.13;;;;;;;;;;4971633;28;20023;-61
2023/09/16 07:47:26;;;;;;;577.47;370.17;;;;;;;;;;4971088;28;20537;-61
2023/09/16 07:49:52;;;;;;;211.70;108.27;;;;;;;;;;4970783;28;20767;-59
2023/09/16 07:52:17;;;;;;;449.65;308.27;;;;;;;;;;4968857;28;20066;-60
2023/09/16 07:54:43;;;;;;;275.33;187.27;;;;;;;;;;4969834;28;20073;-62
2023/09/16 07:57:08;;;;;;;394.40;339.80;;;;;;;;;;4971822;28;20397;-59
2023/09/16 07:59:33;;;;;;;373.40;290.33;;;;;;;;;;4970121;28;20030;-61
2023/09/16 08:01:59;;;;;;;387.47;314.20;;;;;;;;;;4969616;28;20522;-60
2023/09/16 08:04:24;;;;;;;447.20;248.53;;;;;;;;;;4967752;28;20265;-59
2023/09/16 08:06:49;;;;;;;297.83;209.07;;;;;;;;;;4970482;28;20288;-58
2023/09/16 08:09:15;;;;;;;469.05;383.92;;;;;;;;;;4974705;28;20281;-59
2023/09/16 08:11:40;;;;;;;328.73;214.77;;;;;;;;;;4974776;28;20093;-58
2023/09/16 08:14:06;;;;;;;377.77;314.17;;;;;;;;;;4974499;28;20051;-59
2023/09/16 08:16:32;;;;;;;558.50;329.35;;;;;;;;;;4975451;28;20034;-59
2023/09/16 08:18:57;;;;;;;378.90;332.97;;;;;;;;;;4974262;28;20566;-58
2023/09/16 08:21:22;;;;;;;554.77;363.80;;;;;;;;;;4972542;28;20157;-58
2023/09/16 08:23:47;;;;;;;454.33;406.57;;;;;;;;;;4973687;28;20077;-59
2023/09/16 08:26:13;;;;;;;330.60;290.83;;;;;;;;;;4973588;28;20431;-58
2023/09/16 08:28:38;;;;;;;483.10;345.80;;;;;;;;;;4970609;28;20611;-59
2023/09/16 08:31:03;;;;;;;340.37;294.17;;;;;;;;;;4975343;28;20274;-60
2023/09/16 08:33:29;;;;;;;575.30;410.90;;;;;;;;;;4972591;28;20034;-58
2023/09/16 08:35:54;;;;;;;380.77;253.55;;;;;;;;;;4972656;28;20639;-58
2023/09/16 08:38:19;;;;;;;449.70;208.53;;;;;;;;;;4972198;28;20121;-58
2023/09/16 08:40:46;;;;;;;361.30;281.40;;;;;;;;;;4973880;28;20114;-58
2023/09/16 08:43:18;;;;;;;503.83;366.90;;;;;;;;;;4972946;28;20487;-60
2023/09/16 08:45:44;;;;;;;425.08;345.85;;;;;;;;;;4972567;28;20042;-59
2023/09/16 08:48:13;;;;;;;375.73;326.98;;;;;;;;;;4974835;28;20030;-60
2023/09/16 08:50:39;;;;;;;380.58;293.55;;;;;;;;;;4971122;28;20113;-58
2023/09/16 08:53:07;;;;;;;335.70;264.75;;;;;;;;;;4973414;28;20109;-58
2023/09/16 08:55:34;;;;;;;581.40;391.60;;;;;;;;;;4971911;28;20038;-60
2023/09/16 08:58:04;;;;;;;403.30;335.35;;;;;;;;;;4973342;28;20034;-58
2023/09/16 09:00:29;;;;;;;456.88;240.90;;;;;;;;;;4972453;28;20042;-58
2023/09/16 09:02:55;;;;;;;350.67;282.35;;;;;;;;;;4974800;28;20106;-59
2023/09/16 09:05:20;;;;;;;531.37;397.03;;;;;;;;;;4970400;28;20109;-57
2023/09/16 09:07:47;;;;;;;394.80;351.95;;;;;;;;;;4974109;28;20260;-59
2023/09/16 09:10:12;;;;;;;522.25;392.27;;;;;;;;;;4972090;28;20169;-58
2023/09/16 09:12:38;;;;;;;334.95;296.20;;;;;;;;;;4971441;28;20097;-62
2023/09/16 09:15:07;;;;;;;317.30;282.02;;;;;;;;;;4972170;28;20414;-57
2023/09/16 09:17:40;;;;;;;547.42;367.40;;;;;;;;;;4973726;28;20023;-59
2023/09/16 09:20:08;;;;;;;391.77;348.02;;;;;;;;;;4971222;28;20031;-59
2023/09/16 09:22:34;;;;;;;529.90;364.67;;;;;;;;;;4981455;28;20170;-59
2023/09/16 09:25:00;;;;;;;322.45;267.58;;;;;;;;;;4983348;28;20041;-58
2023/09/16 09:27:26;;;;;;;553.10;378.10;;;;;;;;;;4968705;28;20046;-59
2023/09/16 09:29:52;;;;;;;420.67;321.17;;;;;;;;;;4971902;28;20522;-58
2023/09/16 09:32:17;;;;;;;324.88;268.08;;;;;;;;;;4972620;28;20046;-58
2023/09/16 09:34:42;;;;;;;471.90;373.33;;;;;;;;;;4970248;28;20033;-58
2023/09/16 09:37:17;;;;;;;482.80;400.40;;;;;;;;;;4974548;28;20038;-58
2023/09/16 09:39:42;;;;;;;319.77;211.50;;;;;;;;;;4970901;28;20391;-63
2023/09/16 09:42:07;;;;;;;470.92;359.08;;;;;;;;;;4971129;28;20537;-59
2023/09/16 09:44:34;;;;;;;401.30;258.30;;;;;;;;;;4970840;28;20026;-58
2023/09/16 09:47:00;;;;;;;345.23;295.70;;;;;;;;;;4972944;28;20049;-58
2023/09/16 09:49:25;;;;;;;629.75;406.10;;;;;;;;;;4969467;28;20027;-60
2023/09/16 09:51:51;;;;;;;417.13;372.25;;;;;;;;;;4973948;28;20307;-59
2023/09/16 09:54:17;;;;;;;402.23;280.45;;;;;;;;;;4972674;28;20049;-58
2023/09/16 09:56:42;;;;;;;428.85;360.58;;;;;;;;;;4968544;28;20251;-58
2023/09/16 09:59:09;;;;;;;300.67;230.50;;;;;;;;;;4972425;28;20029;-58
2023/09/16 10:01:35;;;;;;;562.25;292.15;;;;;;;;;;4969660;28;20038;-59
2023/09/16 10:04:01;;;;;;;451.70;403.08;;;;;;;;;;4972432;28;20031;-59
2023/09/16 10:06:27;;;;;;;483.75;331.75;;;;;;;;;;4970640;28;20086;-58
2023/09/16 10:08:52;;;;;;;437.70;330.10;;;;;;;;;;4973114;28;20561;-59
2023/09/16 10:11:20;;;;;;;314.13;238.23;;;;;;;;;;4970911;28;20235;-59
2023/09/16 10:13:45;;;;;;;398.20;350.30;;;;;;;;;;4970580;28;20073;-59
2023/09/16 10:16:10;;;;;;;377.37;294.67;;;;;;;;;;4977934;28;20090;-58
2023/09/16 10:18:37;;;;;;;440.87;286.43;;;;;;;;;;4971254;28;20761;-58
2023/09/16 10:21:02;;;;;;;341.48;256.20;;;;;;;;;;4970808;28;20074;-59
2023/09/16 10:23:28;;;;;;;481.75;177.32;;;;;;;;;;4970483;28;20046;-61
2023/09/16 10:25:53;;;;;;;270.70;218.85;;;;;;;;;;4971467;28;20442;-60
2023/09/16 10:28:18;;;;;;;430.77;337.57;;;;;;;;;;4973872;28;20401;-60
2023/09/16 10:30:45;;;;;;;431.80;265.17;;;;;;;;;;4968070;28;20967;-59
2023/09/16 10:33:10;;;;;;;364.92;310.80;;;;;;;;;;4972076;28;20026;-60
2023/09/16 10:35:40;;;;;;;515.97;331.77;;;;;;;;;;4968202;28;20030;-60
2023/09/16 10:38:06;;;;;;;455.13;366.27;;;;;;;;;;4971486;28;20026;-61
2023/09/16 10:40:32;;;;;;;557.42;376.58;;;;;;;;;;4967775;28;20343;-58
2023/09/16 10:42:58;;;;;;;391.17;294.58;;;;;;;;;;4968522;28;20489;-60
2023/09/16 10:45:24;;;;;;;444.92;269.58;;;;;;;;;;4966797;28;20034;-58
2023/09/16 10:47:50;;;;;;;431.27;312.75;;;;;;;;;;4970540;28;20034;-59
2023/09/16 10:50:15;;;;;;;452.63;350.23;;;;;;;;;;4969806;28;20031;-59
2023/09/16 10:52:44;;;;;;;459.95;277.60;;;;;;;;;;4968200;28;20320;-59
2023/09/16 10:55:09;;;;;;;309.05;268.67;;;;;;;;;;4969963;28;20087;-61
2023/09/16 10:57:43;;;;;;;531.57;237.60;;;;;;;;;;4969977;28;20087;-59
2023/09/16 11:00:10;;;;;;;484.90;374.13;;;;;;;;;;4971739;28;20262;-60
2023/09/16 11:02:38;;;;;;;463.17;300.55;;;;;;;;;;4973578;28;20019;-60
2023/09/16 11:05:04;;;;;;;276.27;218.68;;;;;;;;;;4971019;28;20019;-58
2023/09/16 11:07:29;;;;;;;400.85;333.63;;;;;;;;;;4972490;28;20036;-59
2023/09/16 11:09:55;;;;;;;386.50;259.77;;;;;;;;;;4972354;28;20517;-59
2023/09/16 11:12:21;;;;;;;303.70;229.43;;;;;;;;;;4971999;28;20038;-60
2023/09/16 11:14:46;;;;;;;305.15;250.43;;;;;;;;;;4971829;28;20121;-59
2023/09/16 11:17:14;;;;;;;376.03;214.87;;;;;;;;;;4971363;28;20061;-59
2023/09/16 11:19:40;;;;;;;321.75;211.95;;;;;;;;;;4972890;28;20258;-59
2023/09/16 11:22:05;;;;;;;350.10;299.75;;;;;;;;;;4972310;28;20039;-61
2023/09/16 11:24:32;;;;;;;360.20;235.68;;;;;;;;;;4972651;28;20439;-59
2023/09/16 11:26:59;;;;;;;295.60;261.55;;;;;;;;;;4974181;28;20457;-61
2023/09/16 11:29:25;;;;;;;289.30;200.50;;;;;;;;;;4971705;28;20038;-59
2023/09/16 11:31:53;;;;;;;306.15;199.18;;;;;;;;;;4972618;28;20035;-60
2023/09/16 11:34:19;;;;;;;285.10;147.40;;;;;;;;;;4972769;28;20026;-60
2023/09/16 11:36:48;;;;;;;371.35;226.98;;;;;;;;;;4973493;28;20031;-59
2023/09/16 11:39:18;;;;;;;357.90;271.45;;;;;;;;;;4973705;28;20038;-59
2023/09/16 11:41:43;;;;;;;391.73;260.00;;;;;;;;;;4971115;28;20117;-60
2023/09/16 11:44:09;;;;;;;347.92;245.85;;;;;;;;;;4972956;28;20677;-58
2023/09/16 11:46:35;;;;;;;302.73;232.93;;;;;;;;;;4970356;28;20038;-59
2023/09/16 11:49:05;;;;;;;365.00;273.85;;;;;;;;;;4971704;28;20367;-60
2023/09/16 11:51:31;;;;;;;413.93;292.97;;;;;;;;;;4969929;28;20203;-59
2023/09/16 11:53:57;;;;;;;312.30;254.68;;;;;;;;;;4970304;28;20096;-59
2023/09/16 11:56:23;;;;;;;323.30;202.75;;;;;;;;;;4970913;28;20113;-60
2023/09/16 11:58:49;;;;;;;350.58;285.48;;;;;;;;;;4970813;28;20630;-59
2023/09/16 12:01:19;;;;;;;337.10;255.82;;;;;;;;;;4972883;28;20046;-61
2023/09/16 12:03:44;;;;;;;427.60;242.20;;;;;;;;;;4971715;28;20433;-59
2023/09/16 12:06:10;;;;;;;315.95;252.45;;;;;;;;;;4970659;28;20494;-59
2023/09/16 12:08:35;;;;;;;312.13;219.50;;;;;;;;;;4971652;28;20133;-59
2023/09/16 12:11:00;;;;;;;356.25;214.02;;;;;;;;;;4969328;28;20027;-59
2023/09/16 12:13:29;;;;;;;347.60;194.47;;;;;;;;;;4971489;28;20305;-59
2023/09/16 12:15:55;;;;;;;350.23;276.13;;;;;;;;;;4972283;28;20086;-59
2023/09/16 12:18:20;;;;;;;348.95;238.80;;;;;;;;;;4972736;28;20030;-59
2023/09/16 12:20:46;;;;;;;264.37;181.77;;;;;;;;;;4973151;28;20042;-59
2023/09/16 12:23:11;;;;;;;315.20;200.48;;;;;;;;;;4970610;28;20983;-60
2023/09/16 12:25:40;;;;;;;391.25;251.88;;;;;;;;;;4970669;28;20042;-60
2023/09/16 12:28:05;;;;;;;347.05;278.30;;;;;;;;;;4973485;28;20023;-60
2023/09/16 12:30:31;;;;;;;478.87;333.30;;;;;;;;;;4972371;28;20139;-59
2023/09/16 12:32:56;;;;;;;242.93;198.50;;;;;;;;;;4973171;28;20257;-60
2023/09/16 12:35:21;;;;;;;317.23;269.87;;;;;;;;;;4971577;28;20442;-59
2023/09/16 12:37:47;;;;;;;450.30;347.37;;;;;;;;;;4970488;28;20019;-59
2023/09/16 12:40:12;;;;;;;307.95;233.40;;;;;;;;;;4972295;28;20030;-59
2023/09/16 12:42:37;;;;;;;396.55;320.17;;;;;;;;;;4972733;28;20015;-61
2023/09/16 12:45:03;;;;;;;433.70;350.97;;;;;;;;;;4972394;28;20387;-60
2023/09/16 12:47:29;;;;;;;458.13;260.42;;;;;;;;;;4970146;28;20283;-59
2023/09/16 12:49:54;;;;;;;283.10;209.25;;;;;;;;;;4973415;28;20019;-59
2023/09/16 12:52:20;;;;;;;375.25;239.30;;;;;;;;;;4969214;28;20049;-61
2023/09/16 12:54:48;;;;;;;354.70;218.02;;;;;;;;;;4981754;28;20073;-60
2023/09/16 12:57:13;;;;;;;330.50;259.02;;;;;;;;;;4974397;28;20043;-59
2023/09/16 12:59:43;;;;;;;356.85;228.40;;;;;;;;;;4975472;28;20023;-60
2023/09/16 13:02:08;;;;;;;327.38;259.60;;;;;;;;;;4976546;28;20154;-59
2023/09/16 13:04:33;;;;;;;415.23;281.13;;;;;;;;;;4973661;28;20110;-60
2023/09/16 13:06:59;;;;;;;383.88;318.13;;;;;;;;;;4973538;28;20352;-58
2023/09/16 13:09:30;;;;;;;350.33;273.30;;;;;;;;;;4975429;28;20090;-59
2023/09/16 13:11:55;;;;;;;412.80;273.85;;;;;;;;;;4973394;28;20746;-60
2023/09/16 13:14:22;;;;;;;460.42;389.27;;;;;;;;;;4972484;28;20031;-61
2023/09/16 13:16:48;;;;;;;320.33;242.93;;;;;;;;;;4973920;28;20031;-59
2023/09/16 13:19:20;;;;;;;384.98;292.98;;;;;;;;;;4973011;28;20093;-59
2023/09/16 13:21:46;;;;;;;447.05;350.40;;;;;;;;;;4974062;28;20094;-59
2023/09/16 13:24:11;;;;;;;427.95;280.70;;;;;;;;;;4972719;28;20038;-58
2023/09/16 13:26:47;;;;;;;294.67;154.13;;;;;;;;;;4975304;28;20046;-58
2023/09/16 13:29:14;;;;;;;328.70;282.95;;;;;;;;;;4977018;28;20035;-58
2023/09/16 13:31:39;;;;;;;487.17;373.15;;;;;;;;;;4973574;28;20542;-59
2023/09/16 13:34:04;;;;;;;295.13;227.40;;;;;;;;;;4974205;28;20057;-59
2023/09/16 13:36:33;;;;;;;359.67;287.87;;;;;;;;;;4971980;28;20282;-58
2023/09/16 13:39:00;;;;;;;369.73;324.55;;;;;;;;;;4974080;28;20026;-60
2023/09/16 13:41:26;;;;;;;320.77;200.20;;;;;;;;;;4976634;28;20417;-58
2023/09/16 13:43:51;;;;;;;375.40;290.27;;;;;;;;;;4972896;28;20331;-59
2023/09/16 13:46:17;;;;;;;353.23;280.80;;;;;;;;;;4976212;28;20070;-59
2023/09/16 13:48:44;;;;;;;411.08;322.67;;;;;;;;;;4973810;28;20054;-61
2023/09/16 13:51:10;;;;;;;423.85;298.45;;;;;;;;;;4975798;28;20023;-58